Akademik Fedorov — UCKZ — position and weather

sailwx.info

Track history (hours):
 
Tides and Currents Weather Stations Pressure Air Temp Water Temp Dewpoint Dewpoint Depression Visibility Wind Speed Wind Dir Waves Ship Positions

Oceanographic research ship Akademik Fedorov (Russia)

Detailed information on ship capabilities available from ARCUS's ALIAS (Arctic Logistics Information and Support) project.

Last reported at 2019-Jun-19 21:00 UTC. Time now 2019-Jun-19 21:23 UTC.
Position N 59°28' E 022°15'.

Length 141 m; beam 17 m.

Type: Other ship. MMSI: 273412710.

Date/timePositionNaut miles runAvg speedWind from/ knotsBaromVisibWave heightAir tempDewpointWater temp
2019-Jun-19 21:00N 59°28' E 022°15'4 8.6
2019-Jun-19 20:30N 59°29' E 022°23'4 8.7
2019-Jun-19 20:00N 59°31' E 022°31'4 8.6
2019-Jun-19 19:30N 59°32' E 022°39'4 8.7
2019-Jun-19 19:00N 59°34' E 022°47'5 9.1
2019-Jun-19 18:30N 59°35' E 022°56'5 9.3
2019-Jun-19 18:00N 59°36' E 023°05'5 9.1
2019-Jun-19 17:30N 59°37' E 023°13'4 8.8
2019-Jun-19 17:00N 59°38' E 023°22'4 8.9
2019-Jun-19 16:30N 59°39' E 023°30'4 8.8
2019-Jun-19 16:00N 59°41' E 023°39'4 8.7
2019-Jun-19 15:30N 59°42' E 023°47'5 9.1
2019-Jun-19 15:00N 59°43' E 023°56'5 9.1
2019-Jun-19 14:30N 59°44' E 024°04'5 9.2
2019-Jun-19 13:59N 59°45' E 024°13'4 9.1
2019-Jun-19 13:30N 59°46' E 024°22'5 9.0
2019-Jun-19 13:00N 59°47' E 024°31'4 9.0
2019-Jun-19 12:30N 59°48' E 024°39'4 8.8
2019-Jun-19 12:00N 59°49' E 024°48'4 8.9
2019-Jun-19 11:31N 59°50' E 024°57'4 8.6
2019-Jun-19 11:00N 59°51' E 025°05'5 8.9
2019-Jun-19 10:29N 59°52' E 025°14'4 8.7
2019-Jun-19 10:00N 59°53' E 025°22'4 8.9
2019-Jun-19 09:30N 59°54' E 025°31'4 8.2
2019-Jun-19 09:00N 59°55' E 025°39'4 8.8
2019-Jun-19 08:30N 59°56' E 025°47'5 8.9
2019-Jun-19 08:00N 59°57' E 025°56'5 8.5
2019-Jun-19 07:25N 59°58' E 026°06'3 8.3
2019-Jun-19 07:00N 59°59' E 026°12'4 8.6
2019-Jun-19 06:30N 59°60' E 026°20'4 8.5
2019-Jun-19 06:00N 60°01' E 026°29'4 7.7
2019-Jun-19 05:30N 60°01' E 026°36'4 8.7
2019-Jun-19 05:00N 60°01' E 026°45'5 9.6
2019-Jun-19 04:30N 59°60' E 026°54'5 9.3
2019-Jun-19 04:00N 59°60' E 027°04'5 9.6
2019-Jun-19 03:30N 60°02' E 027°12'5 9.7
2019-Jun-19 03:00N 60°04' E 027°20'10 9.6
2019-Jun-19 02:00N 60°09' E 027°37'5 9.9
2019-Jun-19 01:30N 60°12' E 027°45'5 9.5
2019-Jun-19 01:00N 60°11' E 027°55'5 9.8
2019-Jun-19 00:30N 60°10' E 028°04'510.0
2019-Jun-19 00:01N 60°09' E 028°14'5 9.5
2019-Jun-18 23:30N 60°06' E 028°22'5 9.9
2019-Jun-18 23:00N 60°03' E 028°31'5 9.8
2019-Jun-18 22:30N 60°03' E 028°40'5 9.9
2019-Jun-18 22:00N 60°03' E 028°50'5 9.8
2019-Jun-18 21:30N 60°03' E 029°00'612.2
2019-Jun-18 21:00N 60°02' E 029°12'510.4
2019-Jun-18 20:30N 60°02' E 029°23'12 9.3
2019-Jun-18 19:14N 59°59' E 029°45'310.4
2019-Jun-18 19:00N 59°57' E 029°50'510.4
2019-Jun-18 18:30N 59°55' E 029°59'5 9.0
2019-Jun-18 18:00N 59°54' E 030°07'2 4.0
2019-Jun-18 17:27N 59°53' E 030°12'0 0.2
2019-Jun-18 16:57N 59°53' E 030°12'0 0.0
2019-Jun-18 16:30N 59°53' E 030°12'0 0.0
2019-Jun-18 16:00N 59°53' E 030°12'0 0.0
2019-Jun-18 15:24N 59°53' E 030°12'0 0.0
2019-Jun-18 14:42N 59°53' E 030°12'0 0.0
2019-Jun-18 14:30N 59°53' E 030°12'0 0.0
2019-Jun-18 13:57N 59°53' E 030°12'0 0.0
2019-Jun-18 13:30N 59°53' E 030°12'0 0.0
2019-Jun-18 12:24N 59°53' E 030°12'0 0.0
2019-Jun-18 12:00N 59°53' E 030°12'0 0.0
2019-Jun-18 11:27N 59°53' E 030°12'0 0.0
2019-Jun-18 10:57N 59°53' E 030°12'0 0.0
2019-Jun-18 10:30N 59°53' E 030°12'0 0.0
2019-Jun-18 10:00N 59°53' E 030°12'0 0.0
2019-Jun-18 09:24N 59°53' E 030°12'0 0.0
2019-Jun-18 09:00N 59°53' E 030°12'0 0.0
2019-Jun-18 08:30N 59°53' E 030°12'0 0.0
2019-Jun-18 07:57N 59°53' E 030°12'0 0.0
2019-Jun-18 07:30N 59°53' E 030°12'0 0.0
2019-Jun-18 07:00N 59°53' E 030°12'0 0.0
2019-Jun-18 06:30N 59°53' E 030°12'0 0.0
2019-Jun-18 06:00N 59°53' E 030°12'0 0.0
2019-Jun-18 05:30N 59°53' E 030°12'0 0.0
2019-Jun-18 05:00N 59°53' E 030°12'0 0.0
2019-Jun-18 04:30N 59°53' E 030°12'0 0.0
2019-Jun-18 03:57N 59°53' E 030°12'0 0.0
2019-Jun-18 03:30N 59°53' E 030°12'0 0.0
2019-Jun-18 03:00N 59°53' E 030°12'0 0.0
2019-Jun-18 02:30N 59°53' E 030°12'0 0.0
2019-Jun-18 01:57N 59°53' E 030°12'0 0.0
2019-Jun-18 01:30N 59°53' E 030°12'0 0.0
2019-Jun-18 01:00N 59°53' E 030°12'0 0.0
2019-Jun-18 00:30N 59°53' E 030°12'0 0.0
2019-Jun-18 00:00N 59°53' E 030°12'0 0.0
2019-Jun-17 23:27N 59°53' E 030°12'0 0.0
2019-Jun-17 23:00N 59°53' E 030°12'0 0.0
2019-Jun-17 22:30N 59°53' E 030°12'0 0.0
2019-Jun-17 22:00N 59°53' E 030°12'0 0.0
2019-Jun-17 21:45N 59°53' E 030°12'0 0.0
2019-Jun-17 21:36N 59°53' E 030°12'0 0.0
2019-Jun-17 21:21N 59°53' E 030°12'0 0.0
2019-Jun-17 21:00N 59°53' E 030°12'0 0.0
2019-Jun-17 20:27N 59°53' E 030°12'0 0.0
2019-Jun-17 20:00N 59°53' E 030°12'0 0.0
2019-Jun-16 23:27N 59°53' E 030°12'0 0.0
2019-Jun-16 23:00N 59°53' E 030°12'0 0.0
2019-Jun-16 22:30N 59°53' E 030°12'0 0.0
2019-Jun-16 22:00N 59°53' E 030°12'0 0.0
2019-Jun-16 21:30N 59°53' E 030°12'0 0.0
2019-Jun-16 21:00N 59°53' E 030°12'0 0.0
2019-Jun-16 20:30N 59°53' E 030°12'0 0.0
2019-Jun-16 19:45N 59°53' E 030°12'0 0.0
2019-Jun-16 19:18N 59°53' E 030°12'0 0.0
2019-Jun-16 18:45N 59°53' E 030°12'0 0.0
2019-Jun-16 18:27N 59°53' E 030°12'0 0.0
2019-Jun-16 18:00N 59°53' E 030°12'0 0.0
2019-Jun-16 17:24N 59°53' E 030°12'0 0.0
2019-Jun-16 17:00N 59°53' E 030°12'0 0.0
2019-Jun-16 16:27N 59°53' E 030°12'0 0.0
2019-Jun-16 16:00N 59°53' E 030°12'0 0.0
2019-Jun-16 15:27N 59°53' E 030°12'0 0.0
2019-Jun-16 15:00N 59°53' E 030°12'0 0.0
2019-Jun-16 14:30N 59°53' E 030°12'0 0.0
2019-Jun-16 14:00N 59°53' E 030°12'0 0.0
2019-Jun-16 13:30N 59°53' E 030°12'0 0.0
2019-Jun-16 13:00N 59°53' E 030°12'0 0.0
2019-Jun-16 12:27N 59°53' E 030°12'0 0.0
2019-Jun-16 11:54N 59°53' E 030°12'0 0.0
2019-Jun-16 11:30N 59°53' E 030°12'0 0.0
2019-Jun-16 11:00N 59°53' E 030°12'0 0.0
2019-Jun-16 10:30N 59°53' E 030°12'0 0.0
2019-Jun-16 09:54N 59°53' E 030°12'0 0.0
2019-Jun-16 09:30N 59°53' E 030°12'0 0.0
2019-Jun-16 09:00N 59°53' E 030°12'0 0.0
2019-Jun-16 08:30N 59°53' E 030°12'0 0.0
2019-Jun-16 08:00N 59°53' E 030°12'0 0.0
2019-Jun-16 07:30N 59°53' E 030°12'0 0.0
2019-Jun-16 07:00N 59°53' E 030°12'0 0.0
2019-Jun-16 06:30N 59°53' E 030°12'0 0.0
2019-Jun-16 06:00N 59°53' E 030°11'0 0.0
2019-Jun-16 05:27N 59°53' E 030°11'0 0.0
2019-Jun-16 05:00N 59°53' E 030°12'0 0.0
2019-Jun-16 04:30N 59°53' E 030°12'0 0.0
2019-Jun-16 04:00N 59°53' E 030°12'0 0.0
2019-Jun-16 03:24N 59°53' E 030°12'0 0.0
2019-Jun-16 03:00N 59°53' E 030°12'0 0.0
2019-Jun-16 02:27N 59°53' E 030°11'0 0.0
2019-Jun-16 02:00N 59°53' E 030°12'0 0.0
2019-Jun-16 01:30N 59°53' E 030°12'0 0.0
2019-Jun-16 01:00N 59°53' E 030°12'0 0.0
2019-Jun-16 00:30N 59°53' E 030°12'0 0.0
2019-Jun-16 00:00N 59°53' E 030°12'0 0.0
2019-Jun-15 23:30N 59°53' E 030°12'0 0.0
2019-Jun-15 23:00N 59°53' E 030°12'0 0.0
2019-Jun-15 22:27N 59°53' E 030°12'0 0.0
2019-Jun-15 22:00N 59°53' E 030°12'0 0.0
2019-Jun-15 21:30N 59°53' E 030°12'0 0.0
2019-Jun-15 21:00N 59°53' E 030°12'0 0.0
2019-Jun-15 20:30N 59°53' E 030°12'0 0.0
2019-Jun-15 20:00N 59°53' E 030°12'0 0.0
2019-Jun-15 19:30N 59°53' E 030°12'0 0.0
2019-Jun-15 18:54N 59°53' E 030°12'0 0.0
2019-Jun-15 18:30N 59°53' E 030°12'0 0.0
2019-Jun-15 18:00N 59°53' E 030°12'0 0.0
2019-Jun-15 17:30N 59°53' E 030°12'0 0.0
2019-Jun-15 17:00N 59°53' E 030°12'0 0.0
2019-Jun-15 16:30N 59°53' E 030°12'0 0.0
2019-Jun-15 16:00N 59°53' E 030°12'0 0.0
2019-Jun-15 15:30N 59°53' E 030°12'0 0.0
2019-Jun-15 15:00N 59°53' E 030°12'0 0.0
2019-Jun-15 14:30N 59°53' E 030°12'0 0.0
2019-Jun-15 14:00N 59°53' E 030°12'0 0.0
2019-Jun-15 13:30N 59°53' E 030°12'0 0.0
2019-Jun-15 12:57N 59°53' E 030°12'0 0.0
2019-Jun-15 12:30N 59°53' E 030°12'0 0.0
2019-Jun-15 12:00N 59°53' E 030°12'0 0.0
2019-Jun-15 11:30N 59°53' E 030°12'0 0.0
2019-Jun-15 11:00N 59°53' E 030°12'0 0.0
2019-Jun-15 10:30N 59°53' E 030°12'0 0.0
2019-Jun-15 10:00N 59°53' E 030°12'0 0.0
2019-Jun-15 09:30N 59°53' E 030°12'0 0.0
2019-Jun-15 09:00N 59°53' E 030°12'0 0.0
2019-Jun-15 08:30N 59°53' E 030°12'0 0.0
2019-Jun-15 08:00N 59°53' E 030°12'0 0.0
2019-Jun-15 07:30N 59°53' E 030°12'0 0.0
2019-Jun-15 07:00N 59°53' E 030°12'0 0.0
2019-Jun-15 06:30N 59°53' E 030°12'0 0.0
2019-Jun-15 06:00N 59°53' E 030°12'0 0.0
2019-Jun-15 05:25N 59°53' E 030°12'0 0.0
2019-Jun-15 05:00N 59°53' E 030°12'0 0.0
2019-Jun-15 04:30N 59°53' E 030°12'0 0.0
2019-Jun-15 04:00N 59°53' E 030°12'0 0.0
2019-Jun-15 03:27N 59°53' E 030°12'0 0.0
2019-Jun-15 03:00N 59°53' E 030°12'0 0.0
2019-Jun-15 02:28N 59°53' E 030°11'0 0.0
2019-Jun-15 01:58N 59°53' E 030°12'0 0.0
2019-Jun-15 01:19N 59°53' E 030°12'0 0.0
2019-Jun-15 00:58N 59°53' E 030°12'0 0.0
2019-Jun-15 00:28N 59°53' E 030°12'0 0.0
2019-Jun-14 23:58N 59°53' E 030°12'0 0.0
2019-Jun-14 23:30N 59°53' E 030°12'0 0.0
2019-Jun-14 23:00N 59°53' E 030°12'0 0.0
2019-Jun-14 22:30N 59°53' E 030°12'0 0.0
2019-Jun-14 22:00N 59°53' E 030°12'0 0.0
2019-Jun-14 21:30N 59°53' E 030°11'0 0.0
2019-Jun-14 21:00N 59°53' E 030°12'0 0.0
2019-Jun-14 20:29N 59°53' E 030°12'0 0.0
2019-Jun-14 19:59N 59°53' E 030°12'0 0.0
2019-Jun-14 19:29N 59°53' E 030°12'0 0.0
2019-Jun-14 18:55N 59°53' E 030°12'0 0.0
2019-Jun-14 18:28N 59°53' E 030°12'0 0.0
2019-Jun-14 17:58N 59°53' E 030°12'0 0.0
2019-Jun-14 17:28N 59°53' E 030°12'0 0.0
2019-Jun-14 16:58N 59°53' E 030°12'0 0.0
2019-Jun-14 16:28N 59°53' E 030°12'0 0.0
2019-Jun-14 15:31N 59°53' E 030°12'0 0.1
2019-Jun-14 15:28N 59°53' E 030°12'0 0.0
2019-Jun-14 14:58N 59°53' E 030°12'0 0.0
2019-Jun-14 14:28N 59°53' E 030°12'0 0.0
2019-Jun-14 13:58N 59°53' E 030°12'0 0.0
2019-Jun-14 13:28N 59°53' E 030°12'0 0.0
2019-Jun-14 12:55N 59°53' E 030°12'0 0.0
2019-Jun-14 12:25N 59°53' E 030°12'0 0.0
2019-Jun-14 11:58N 59°53' E 030°12'0 0.0
2019-Jun-14 11:28N 59°53' E 030°12'0 0.0
2019-Jun-14 10:58N 59°53' E 030°12'0 0.0
2019-Jun-14 10:28N 59°53' E 030°12'0 0.0
2019-Jun-14 09:49N 59°53' E 030°12'0 0.0
2019-Jun-14 09:28N 59°53' E 030°12'0 0.0
2019-Jun-14 08:58N 59°53' E 030°12'0 0.0
2019-Jun-14 08:28N 59°53' E 030°12'0 0.0
2019-Jun-14 07:58N 59°53' E 030°12'0 0.0
2019-Jun-14 07:25N 59°53' E 030°12'0 0.0
2019-Jun-14 06:58N 59°53' E 030°12'0 0.0
2019-Jun-14 06:25N 59°53' E 030°12'0 0.0
2019-Jun-14 05:52N 59°53' E 030°12'0 0.0
2019-Jun-14 05:28N 59°53' E 030°12'0 0.0
2019-Jun-14 04:58N 59°53' E 030°12'0 0.0
2019-Jun-14 04:25N 59°53' E 030°12'0 0.0
2019-Jun-14 03:55N 59°53' E 030°12'0 0.0
2019-Jun-14 03:25N 59°53' E 030°12'0 0.0
2019-Jun-14 02:58N 59°53' E 030°12'0 0.0
2019-Jun-14 02:22N 59°53' E 030°12'0 0.0
2019-Jun-14 01:58N 59°53' E 030°12'0 0.0
2019-Jun-14 01:28N 59°53' E 030°11'0 0.0
2019-Jun-14 00:58N 59°53' E 030°12'0 0.0
2019-Jun-14 00:28N 59°53' E 030°12'0 0.0
2019-Jun-13 23:58N 59°53' E 030°12'0 0.0
2019-Jun-13 23:28N 59°53' E 030°12'0 0.0
2019-Jun-13 22:58N 59°53' E 030°12'0 0.0
2019-Jun-13 22:28N 59°53' E 030°12'0 0.0
2019-Jun-13 21:58N 59°53' E 030°12'0 0.0
2019-Jun-13 21:28N 59°53' E 030°12'0 0.0
2019-Jun-13 20:58N 59°53' E 030°12'0 0.0
2019-Jun-13 20:25N 59°53' E 030°12'0 0.0
2019-Jun-13 19:58N 59°53' E 030°12'0 0.0
2019-Jun-13 19:28N 59°53' E 030°12'0 0.0
2019-Jun-13 18:58N 59°53' E 030°12'0 0.0
2019-Jun-13 18:25N 59°53' E 030°12'0 0.0
2019-Jun-13 17:55N 59°53' E 030°12'0 0.0
2019-Jun-13 17:28N 59°53' E 030°12'0 0.0
2019-Jun-13 16:58N 59°53' E 030°12'0 0.0
2019-Jun-13 16:28N 59°53' E 030°12'0 0.0
2019-Jun-13 15:58N 59°53' E 030°12'0 0.0
2019-Jun-13 15:28N 59°53' E 030°12'0 0.0
2019-Jun-13 14:58N 59°53' E 030°12'0 0.0
2019-Jun-13 14:28N 59°53' E 030°12'0 0.0
2019-Jun-13 13:58N 59°53' E 030°12'0 0.0
2019-Jun-13 13:28N 59°53' E 030°12'0 0.0
2019-Jun-13 12:55N 59°53' E 030°12'0 0.0
2019-Jun-13 12:19N 59°53' E 030°12'0 0.0
2019-Jun-13 11:55N 59°53' E 030°12'0 0.0
2019-Jun-13 11:28N 59°53' E 030°12'0 0.0
2019-Jun-13 10:58N 59°53' E 030°12'0 0.0
2019-Jun-13 10:28N 59°53' E 030°12'0 0.0
2019-Jun-13 09:58N 59°53' E 030°12'0 0.0
2019-Jun-13 09:25N 59°53' E 030°12'0 0.0
2019-Jun-13 08:58N 59°53' E 030°12'0 0.0
2019-Jun-13 08:28N 59°53' E 030°12'0 0.0
2019-Jun-13 07:58N 59°53' E 030°12'0 0.0
2019-Jun-13 07:28N 59°53' E 030°12'0 0.0
2019-Jun-13 06:58N 59°53' E 030°12'0 0.0
2019-Jun-13 06:28N 59°53' E 030°12'0 0.0
2019-Jun-13 05:58N 59°53' E 030°12'0 0.0
2019-Jun-13 05:28N 59°53' E 030°12'0 0.0
2019-Jun-13 04:58N 59°53' E 030°12'0 0.0
2019-Jun-13 04:28N 59°53' E 030°12'0 0.0
2019-Jun-13 03:58N 59°53' E 030°12'0 0.0
2019-Jun-13 03:28N 59°53' E 030°12'0 0.0
2019-Jun-13 02:58N 59°53' E 030°12'0 0.0
2019-Jun-13 02:28N 59°53' E 030°12'0 0.0
2019-Jun-13 01:58N 59°53' E 030°12'0 0.0
2019-Jun-13 01:28N 59°53' E 030°12'0 0.0
2019-Jun-13 00:58N 59°53' E 030°12'0 0.0
2019-Jun-13 00:28N 59°53' E 030°12'0 0.0
2019-Jun-12 23:55N 59°53' E 030°12'0 0.0
2019-Jun-12 23:28N 59°53' E 030°12'0 0.0
2019-Jun-12 22:58N 59°53' E 030°12'0 0.0
2019-Jun-12 22:28N 59°53' E 030°12'0 0.0
2019-Jun-12 21:58N 59°53' E 030°12'0 0.0
2019-Jun-12 21:28N 59°53' E 030°12'0 0.0
2019-Jun-12 20:58N 59°53' E 030°12'0 0.0
2019-Jun-12 20:28N 59°53' E 030°12'0 0.0
2019-Jun-12 19:58N 59°53' E 030°12'0 0.0
2019-Jun-12 19:28N 59°53' E 030°12'0 0.0
2019-Jun-12 18:58N 59°53' E 030°12'0 0.0
2019-Jun-12 18:28N 59°53' E 030°12'0 0.0
2019-Jun-12 17:55N 59°53' E 030°12'0 0.0
2019-Jun-12 17:28N 59°53' E 030°12'0 0.0
2019-Jun-12 16:58N 59°53' E 030°12'0 0.0
2019-Jun-12 16:28N 59°53' E 030°12'0 0.0
2019-Jun-12 15:58N 59°53' E 030°12'0 0.0
2019-Jun-12 15:28N 59°53' E 030°12'0 0.0
2019-Jun-12 14:55N 59°53' E 030°12'0 0.0
2019-Jun-12 14:28N 59°53' E 030°12'0 0.0
2019-Jun-12 13:58N 59°53' E 030°12'0 0.0
2019-Jun-12 13:28N 59°53' E 030°12'0 0.0
2019-Jun-12 12:58N 59°53' E 030°12'0 0.0
2019-Jun-12 12:28N 59°53' E 030°12'0 0.0
2019-Jun-12 11:58N 59°53' E 030°12'0 0.0
2019-Jun-12 11:28N 59°53' E 030°12'0 0.0
2019-Jun-12 10:58N 59°53' E 030°12'0 0.0
2019-Jun-12 10:28N 59°53' E 030°12'0 0.0
2019-Jun-12 09:58N 59°53' E 030°12'0 0.0
2019-Jun-12 09:28N 59°53' E 030°12'0 0.0
2019-Jun-12 08:58N 59°53' E 030°12'0 0.0
2019-Jun-12 08:25N 59°53' E 030°12'0 0.0
2019-Jun-12 07:55N 59°53' E 030°12'0 0.0
2019-Jun-12 07:28N 59°53' E 030°12'0 0.0
2019-Jun-12 06:58N 59°53' E 030°12'0 0.0
2019-Jun-12 06:25N 59°53' E 030°12'0 0.0
2019-Jun-12 05:58N 59°53' E 030°12'0 0.0
2019-Jun-12 05:25N 59°53' E 030°12'0 0.0
2019-Jun-12 04:58N 59°53' E 030°12'0 0.0
2019-Jun-12 04:25N 59°53' E 030°12'0 0.0
2019-Jun-12 03:58N 59°53' E 030°12'0 0.0
2019-Jun-12 03:28N 59°53' E 030°12'0 0.0
2019-Jun-12 02:58N 59°53' E 030°12'0 0.0
2019-Jun-12 02:28N 59°53' E 030°12'0 0.0
2019-Jun-12 01:28N 59°53' E 030°12'0 0.0
2019-Jun-12 00:58N 59°53' E 030°12'0 0.0
2019-Jun-12 00:28N 59°53' E 030°12'0 0.0
2019-Jun-11 23:58N 59°53' E 030°12'0 0.0
2019-Jun-11 23:28N 59°53' E 030°12'0 0.0
2019-Jun-11 22:55N 59°53' E 030°12'0 0.0
2019-Jun-11 22:28N 59°53' E 030°12'0 0.0
2019-Jun-11 21:58N 59°53' E 030°12'0 0.0
2019-Jun-11 21:28N 59°53' E 030°12'0 0.0
2019-Jun-11 20:58N 59°53' E 030°12'0 0.0
2019-Jun-11 20:28N 59°53' E 030°12'0 0.0
2019-Jun-11 19:58N 59°53' E 030°12'0 0.0
2019-Jun-11 19:28N 59°53' E 030°12'0 0.0
2019-Jun-11 18:55N 59°53' E 030°12'0 0.0
2019-Jun-11 18:22N 59°53' E 030°11'0 0.0
2019-Jun-11 17:58N 59°53' E 030°12'0 0.0
2019-Jun-11 17:22N 59°53' E 030°12'0 0.0
2019-Jun-11 16:58N 59°53' E 030°12'0 0.0
2019-Jun-11 16:28N 59°53' E 030°12'0 0.0
2019-Jun-11 15:58N 59°53' E 030°12'0 0.0
2019-Jun-11 15:28N 59°53' E 030°12'0 0.0
2019-Jun-11 14:52N 59°53' E 030°12'0 0.0
2019-Jun-11 14:28N 59°53' E 030°12'0 0.0
2019-Jun-11 13:55N 59°53' E 030°12'0 0.0
2019-Jun-11 13:28N 59°53' E 030°12'0 0.0
2019-Jun-11 12:58N 59°53' E 030°12'0 0.0
2019-Jun-11 12:25N 59°53' E 030°12'0 0.0
2019-Jun-11 11:58N 59°53' E 030°12'0 0.0
2019-Jun-11 11:28N 59°53' E 030°12'0 0.0
2019-Jun-11 10:58N 59°53' E 030°12'0 0.0
2019-Jun-11 10:28N 59°53' E 030°12'0 0.0
2019-Jun-11 09:55N 59°53' E 030°12'0 0.0
2019-Jun-11 09:25N 59°53' E 030°12'0 0.0
2019-Jun-11 08:58N 59°53' E 030°12'0 0.0
2019-Jun-11 08:28N 59°53' E 030°12'0 0.0
2019-Jun-11 07:58N 59°53' E 030°12'0 0.0
2019-Jun-11 07:28N 59°53' E 030°12'0 0.0
2019-Jun-11 06:55N 59°53' E 030°12'0 0.0
2019-Jun-11 06:19N 59°53' E 030°12'0 0.0
2019-Jun-11 05:58N 59°53' E 030°12'0 0.0
2019-Jun-11 05:28N 59°53' E 030°12'0 0.0
2019-Jun-11 04:58N 59°53' E 030°12'0 0.0
2019-Jun-11 04:28N 59°53' E 030°11'0 0.0
2019-Jun-11 03:55N 59°53' E 030°12'0 0.0
2019-Jun-11 03:25N 59°53' E 030°12'0 0.0
2019-Jun-11 02:58N 59°53' E 030°12'0 0.0
2019-Jun-11 02:25N 59°53' E 030°12'0 0.0
2019-Jun-11 01:55N 59°53' E 030°12'0 0.0
2019-Jun-11 01:28N 59°53' E 030°12'0 0.0
2019-Jun-11 00:58N 59°53' E 030°12'0 0.0
2019-Jun-11 00:28N 59°53' E 030°12'0 0.0
2019-Jun-10 23:58N 59°53' E 030°12'0 0.0
2019-Jun-10 23:28N 59°53' E 030°12'0 0.0
2019-Jun-10 22:55N 59°53' E 030°12'0 0.0
2019-Jun-10 22:25N 59°53' E 030°12'0 0.0
2019-Jun-10 21:58N 59°53' E 030°12'0 0.0
2019-Jun-10 21:28N 59°53' E 030°12'0 0.0
2019-Jun-10 20:58N 59°53' E 030°12'0 0.0
2019-Jun-10 20:22N 59°53' E 030°12'0 0.0
2019-Jun-10 19:55N 59°53' E 030°12'0 0.0
2019-Jun-10 19:28N 59°53' E 030°12'0 0.0
2019-Jun-10 18:58N 59°53' E 030°12'0 0.0
2019-Jun-10 18:28N 59°53' E 030°12'0 0.0
2019-Jun-10 17:58N 59°53' E 030°12'0 0.0
2019-Jun-10 17:28N 59°53' E 030°12'0 0.0
2019-Jun-10 16:58N 59°53' E 030°12'0 0.0
2019-Jun-10 16:25N 59°53' E 030°12'0 0.0
2019-Jun-10 15:58N 59°53' E 030°11'0 0.0
2019-Jun-10 15:22N 59°53' E 030°12'0 0.0
2019-Jun-10 14:55N 59°53' E 030°12'0 0.0
2019-Jun-10 14:28N 59°53' E 030°12'0 0.0
2019-Jun-10 13:58N 59°53' E 030°12'0 0.0
2019-Jun-10 13:28N 59°53' E 030°12'0 0.0
2019-Jun-10 12:58N 59°53' E 030°12'0 0.0
2019-Jun-10 12:28N 59°53' E 030°11'0 0.0
2019-Jun-10 11:55N 59°53' E 030°11'0 0.0
2019-Jun-10 11:22N 59°53' E 030°12'0 0.0
2019-Jun-10 10:55N 59°53' E 030°12'0 0.0
2019-Jun-10 10:28N 59°53' E 030°12'0 0.0
2019-Jun-10 09:58N 59°53' E 030°12'0 0.0
2019-Jun-10 09:28N 59°53' E 030°12'0 0.0
2019-Jun-10 08:58N 59°53' E 030°12'0 0.0
2019-Jun-10 08:28N 59°53' E 030°12'0 0.0
2019-Jun-10 07:58N 59°53' E 030°12'0 0.0
2019-Jun-10 07:25N 59°53' E 030°12'0 0.0
2019-Jun-10 06:55N 59°53' E 030°12'0 0.0
2019-Jun-10 06:28N 59°53' E 030°12'0 0.0
2019-Jun-10 05:55N 59°53' E 030°12'0 0.0
2019-Jun-10 05:28N 59°53' E 030°12'0 0.0
2019-Jun-10 04:58N 59°53' E 030°12'0 0.0
2019-Jun-10 04:28N 59°53' E 030°12'0 0.0
2019-Jun-10 03:58N 59°53' E 030°12'0 0.0
2019-Jun-10 03:25N 59°53' E 030°12'0 0.0
2019-Jun-10 02:58N 59°53' E 030°12'0 0.0
2019-Jun-10 02:22N 59°53' E 030°12'0 0.0
2019-Jun-10 01:58N 59°53' E 030°12'0 0.0
2019-Jun-10 01:28N 59°53' E 030°12'0 0.0
2019-Jun-10 00:55N 59°53' E 030°12'0 0.0
2019-Jun-10 00:28N 59°53' E 030°12'0 0.0
2019-Jun-09 23:58N 59°53' E 030°12'0 0.0
2019-Jun-09 23:28N 59°53' E 030°12'0 0.0
2019-Jun-09 22:58N 59°53' E 030°12'0 0.0
2019-Jun-09 22:28N 59°53' E 030°12'0 0.0
2019-Jun-09 21:58N 59°53' E 030°12'0 0.0
2019-Jun-09 21:28N 59°53' E 030°12'0 0.0
2019-Jun-09 20:58N 59°53' E 030°12'0 0.0
2019-Jun-09 20:28N 59°53' E 030°12'0 0.0
2019-Jun-09 19:55N 59°53' E 030°12'0 0.0
2019-Jun-09 19:28N 59°53' E 030°12'0 0.0
2019-Jun-09 18:58N 59°53' E 030°11'0 0.0
2019-Jun-09 18:28N 59°53' E 030°12'0 0.0
2019-Jun-09 17:58N 59°53' E 030°12'0 0.0
2019-Jun-09 17:28N 59°53' E 030°12'0 0.0
2019-Jun-09 16:58N 59°53' E 030°12'0 0.0
2019-Jun-09 16:28N 59°53' E 030°11'0 0.0
2019-Jun-09 15:58N 59°53' E 030°11'0 0.0
2019-Jun-09 15:28N 59°53' E 030°12'0 0.0
2019-Jun-09 14:58N 59°53' E 030°12'0 0.0
2019-Jun-09 14:28N 59°53' E 030°12'0 0.0
2019-Jun-09 13:59N 59°53' E 030°12'0 0.0
2019-Jun-09 13:26N 59°53' E 030°12'0 0.0
2019-Jun-09 12:59N 59°53' E 030°12'0 0.0
2019-Jun-09 12:26N 59°53' E 030°12'0 0.0
2019-Jun-09 11:59N 59°53' E 030°12'0 0.0
2019-Jun-09 11:29N 59°53' E 030°12'0 0.0
2019-Jun-09 10:59N 59°53' E 030°12'0 0.0
2019-Jun-09 10:29N 59°53' E 030°12'0 0.0
2019-Jun-09 09:59N 59°53' E 030°12'0 0.0
2019-Jun-09 09:29N 59°53' E 030°12'0 0.0
2019-Jun-09 08:59N 59°53' E 030°12'0 0.0
2019-Jun-09 08:26N 59°53' E 030°12'0 0.0
2019-Jun-09 07:56N 59°53' E 030°12'0 0.0
2019-Jun-09 07:29N 59°53' E 030°12'0 0.0
2019-Jun-09 06:59N 59°53' E 030°12'0 0.0
2019-Jun-09 06:26N 59°53' E 030°12'0 0.0
2019-Jun-09 05:53N 59°53' E 030°12'0 0.0
2019-Jun-09 05:29N 59°53' E 030°12'0 0.0
2019-Jun-09 04:56N 59°53' E 030°12'0 0.0
2019-Jun-09 03:56N 59°53' E 030°12'0 0.0
2019-Jun-09 03:29N 59°53' E 030°12'0 0.0
2019-Jun-09 02:59N 59°53' E 030°12'0 0.0
2019-Jun-09 02:26N 59°53' E 030°12'0 0.0
2019-Jun-09 01:59N 59°53' E 030°12'0 0.0
2019-Jun-09 01:26N 59°53' E 030°12'0 0.0
2019-Jun-09 00:53N 59°53' E 030°12'0 0.0
2019-Jun-09 00:14N 59°53' E 030°12'0 0.0
2019-Jun-08 23:41N 59°53' E 030°12'0 0.0
2019-Jun-08 23:14N 59°53' E 030°11'0 0.0
2019-Jun-08 22:56N 59°53' E 030°12'0 0.0
2019-Jun-08 22:17N 59°53' E 030°12'0 0.0
2019-Jun-08 21:53N 59°53' E 030°12'0 0.0
2019-Jun-08 21:17N 59°53' E 030°12'0 0.0
2019-Jun-08 20:47N 59°53' E 030°12'0 0.0
2019-Jun-08 20:29N 59°53' E 030°12'0 0.0
2019-Jun-08 19:59N 59°53' E 030°12'0 0.0
2019-Jun-08 19:29N 59°53' E 030°12'0 0.0
2019-Jun-08 18:53N 59°53' E 030°12'0 0.0
2019-Jun-08 18:29N 59°53' E 030°12'0 0.0
2019-Jun-08 17:59N 59°53' E 030°12'0 0.0
2019-Jun-08 17:29N 59°53' E 030°11'0 0.0
2019-Jun-08 16:56N 59°53' E 030°12'0 0.0
2019-Jun-08 16:29N 59°53' E 030°12'0 0.0
2019-Jun-08 15:59N 59°53' E 030°11'0 0.0
2019-Jun-08 15:26N 59°53' E 030°12'0 0.0
2019-Jun-08 14:56N 59°53' E 030°12'0 0.0
2019-Jun-08 14:29N 59°53' E 030°12'0 0.0
2019-Jun-08 13:56N 59°53' E 030°12'0 0.0
2019-Jun-08 13:29N 59°53' E 030°12'0 0.0
2019-Jun-08 12:59N 59°53' E 030°12'0 0.0
2019-Jun-08 12:29N 59°53' E 030°12'0 0.0
2019-Jun-08 11:59N 59°53' E 030°12'0 0.0
2019-Jun-08 11:23N 59°53' E 030°12'0 0.0
2019-Jun-08 10:59N 59°53' E 030°12'0 0.0
2019-Jun-08 10:26N 59°53' E 030°12'0 0.0
2019-Jun-08 09:59N 59°53' E 030°12'0 0.0
2019-Jun-08 09:26N 59°53' E 030°12'0 0.0
2019-Jun-08 08:59N 59°53' E 030°12'0 0.0
2019-Jun-08 08:29N 59°53' E 030°12'0 0.0
2019-Jun-08 07:59N 59°53' E 030°12'0 0.0
2019-Jun-08 07:29N 59°53' E 030°12'0 0.0
2019-Jun-08 06:59N 59°53' E 030°12'0 0.0
2019-Jun-08 06:29N 59°53' E 030°12'0 0.0
2019-Jun-08 05:59N 59°53' E 030°12'0 0.0
2019-Jun-08 05:29N 59°53' E 030°12'0 0.0
2019-Jun-08 04:41N 59°53' E 030°11'0 0.0
2019-Jun-08 04:29N 59°53' E 030°12'0 0.0
2019-Jun-08 03:53N 59°53' E 030°12'0 0.0
2019-Jun-08 03:29N 59°53' E 030°12'0 0.0
2019-Jun-08 02:59N 59°53' E 030°12'0 0.0
2019-Jun-08 02:29N 59°53' E 030°12'0 0.0
2019-Jun-08 01:59N 59°53' E 030°12'0 0.0
2019-Jun-08 01:29N 59°53' E 030°12'0 0.0
2019-Jun-08 00:59N 59°53' E 030°12'0 0.0
2019-Jun-08 00:29N 59°53' E 030°12'0 0.0
2019-Jun-07 23:59N 59°53' E 030°12'0 0.0
2019-Jun-07 23:29N 59°53' E 030°12'0 0.0
2019-Jun-07 22:59N 59°53' E 030°12'0 0.0
2019-Jun-07 22:29N 59°53' E 030°12'0 0.0
2019-Jun-07 21:59N 59°53' E 030°12'0 0.0
2019-Jun-07 21:29N 59°53' E 030°12'0 0.0
2019-Jun-07 20:59N 59°53' E 030°12'0 0.0
2019-Jun-07 20:29N 59°53' E 030°12'0 0.0
2019-Jun-07 19:56N 59°53' E 030°12'0 0.0
2019-Jun-07 19:23N 59°53' E 030°12'0 0.0
2019-Jun-07 18:59N 59°53' E 030°12'0 0.0
2019-Jun-07 18:29N 59°53' E 030°12'0 0.0
2019-Jun-07 17:59N 59°53' E 030°12'0 0.0
2019-Jun-07 17:26N 59°53' E 030°12'0 0.0
2019-Jun-07 16:47N 59°53' E 030°12'0 0.0
2019-Jun-07 16:29N 59°53' E 030°12'0 0.0
2019-Jun-07 15:41N 59°53' E 030°12'0 0.0
2019-Jun-07 15:17N 59°53' E 030°12'0 0.0
2019-Jun-07 14:59N 59°53' E 030°12'0 0.0
2019-Jun-07 14:29N 59°53' E 030°12'0 0.0
2019-Jun-07 13:44N 59°53' E 030°12'0 0.0
2019-Jun-07 13:23N 59°53' E 030°12'0 0.0
2019-Jun-07 12:59N 59°53' E 030°12'0 0.0
2019-Jun-07 12:29N 59°53' E 030°12'0 0.0
2019-Jun-07 11:59N 59°53' E 030°12'0 0.0
2019-Jun-07 11:29N 59°53' E 030°12'0 0.0
2019-Jun-07 10:47N 59°53' E 030°12'0 0.0
2019-Jun-07 10:23N 59°53' E 030°12'0 0.0
2019-Jun-07 09:59N 59°53' E 030°12'0 0.0
2019-Jun-07 09:29N 59°53' E 030°12'0 0.0
2019-Jun-07 08:59N 59°53' E 030°12'0 0.0
2019-Jun-07 08:23N 59°53' E 030°12'0 0.0
2019-Jun-07 07:59N 59°53' E 030°12'0 0.0
2019-Jun-07 07:29N 59°53' E 030°12'0 0.0
2019-Jun-07 06:59N 59°53' E 030°12'0 0.0
2019-Jun-07 06:29N 59°53' E 030°12'0 0.0
2019-Jun-07 05:53N 59°53' E 030°12'0 0.0
2019-Jun-07 05:23N 59°53' E 030°12'0 0.0
2019-Jun-07 04:59N 59°53' E 030°12'0 0.0
2019-Jun-07 04:23N 59°53' E 030°12'0 0.0
2019-Jun-07 03:59N 59°53' E 030°12'0 0.0
2019-Jun-07 03:23N 59°53' E 030°12'0 0.0
2019-Jun-07 02:53N 59°53' E 030°12'0 0.0
2019-Jun-07 02:29N 59°53' E 030°12'0 0.0
2019-Jun-07 01:50N 59°53' E 030°12'0 0.0
2019-Jun-07 01:23N 59°53' E 030°12'0 0.0
2019-Jun-07 00:32N 59°53' E 030°12'0 0.0
2019-Jun-06 23:53N 59°53' E 030°12'0 0.0
2019-Jun-06 23:29N 59°53' E 030°12'0 0.0
2019-Jun-06 22:59N 59°53' E 030°12'  
Track history (hours):
 
Tides and Currents Weather Stations Pressure Air Temp Water Temp Dewpoint Dewpoint Depression Visibility Wind Speed Wind Dir Waves Ship Positions

Oceanographic research ship Akademik Fedorov (Russia)

Detailed information on ship capabilities available from ARCUS's ALIAS (Arctic Logistics Information and Support) project.

Last reported at 2019-Jun-19 21:00 UTC. Time now 2019-Jun-19 21:23 UTC.
Position N 59°28' E 022°15'.

Length 141 m; beam 17 m.

Type: Other ship. MMSI: 273412710.

Date/timePositionNaut miles runAvg speedWind from/ knotsBaromVisibWave heightAir tempDewpointWater temp
2019-Jun-19 21:00N 59°28' E 022°15'4 8.6
2019-Jun-19 20:30N 59°29' E 022°23'4 8.7
2019-Jun-19 20:00N 59°31' E 022°31'4 8.6
2019-Jun-19 19:30N 59°32' E 022°39'4 8.7
2019-Jun-19 19:00N 59°34' E 022°47'5 9.1
2019-Jun-19 18:30N 59°35' E 022°56'5 9.3
2019-Jun-19 18:00N 59°36' E 023°05'5 9.1
2019-Jun-19 17:30N 59°37' E 023°13'4 8.8
2019-Jun-19 17:00N 59°38' E 023°22'4 8.9
2019-Jun-19 16:30N 59°39' E 023°30'4 8.8
2019-Jun-19 16:00N 59°41' E 023°39'4 8.7
2019-Jun-19 15:30N 59°42' E 023°47'5 9.1
2019-Jun-19 15:00N 59°43' E 023°56'5 9.1
2019-Jun-19 14:30N 59°44' E 024°04'5 9.2
2019-Jun-19 13:59N 59°45' E 024°13'4 9.1
2019-Jun-19 13:30N 59°46' E 024°22'5 9.0
2019-Jun-19 13:00N 59°47' E 024°31'4 9.0
2019-Jun-19 12:30N 59°48' E 024°39'4 8.8
2019-Jun-19 12:00N 59°49' E 024°48'4 8.9
2019-Jun-19 11:31N 59°50' E 024°57'4 8.6
2019-Jun-19 11:00N 59°51' E 025°05'5 8.9
2019-Jun-19 10:29N 59°52' E 025°14'4 8.7
2019-Jun-19 10:00N 59°53' E 025°22'4 8.9
2019-Jun-19 09:30N 59°54' E 025°31'4 8.2
2019-Jun-19 09:00N 59°55' E 025°39'4 8.8
2019-Jun-19 08:30N 59°56' E 025°47'5 8.9
2019-Jun-19 08:00N 59°57' E 025°56'5 8.5
2019-Jun-19 07:25N 59°58' E 026°06'3 8.3
2019-Jun-19 07:00N 59°59' E 026°12'4 8.6
2019-Jun-19 06:30N 59°60' E 026°20'4 8.5
2019-Jun-19 06:00N 60°01' E 026°29'4 7.7
2019-Jun-19 05:30N 60°01' E 026°36'4 8.7
2019-Jun-19 05:00N 60°01' E 026°45'5 9.6
2019-Jun-19 04:30N 59°60' E 026°54'5 9.3
2019-Jun-19 04:00N 59°60' E 027°04'5 9.6
2019-Jun-19 03:30N 60°02' E 027°12'5 9.7
2019-Jun-19 03:00N 60°04' E 027°20'10 9.6
2019-Jun-19 02:00N 60°09' E 027°37'5 9.9
2019-Jun-19 01:30N 60°12' E 027°45'5 9.5
2019-Jun-19 01:00N 60°11' E 027°55'5 9.8
2019-Jun-19 00:30N 60°10' E 028°04'510.0
2019-Jun-19 00:01N 60°09' E 028°14'5 9.5
2019-Jun-18 23:30N 60°06' E 028°22'5 9.9
2019-Jun-18 23:00N 60°03' E 028°31'5 9.8
2019-Jun-18 22:30N 60°03' E 028°40'5 9.9
2019-Jun-18 22:00N 60°03' E 028°50'5 9.8
2019-Jun-18 21:30N 60°03' E 029°00'612.2
2019-Jun-18 21:00N 60°02' E 029°12'510.4
2019-Jun-18 20:30N 60°02' E 029°23'12 9.3
2019-Jun-18 19:14N 59°59' E 029°45'310.4
2019-Jun-18 19:00N 59°57' E 029°50'510.4
2019-Jun-18 18:30N 59°55' E 029°59'5 9.0
2019-Jun-18 18:00N 59°54' E 030°07'2 4.0
2019-Jun-18 17:27N 59°53' E 030°12'0 0.2
2019-Jun-18 16:57N 59°53' E 030°12'0 0.0
2019-Jun-18 16:30N 59°53' E 030°12'0 0.0
2019-Jun-18 16:00N 59°53' E 030°12'0 0.0
2019-Jun-18 15:24N 59°53' E 030°12'0 0.0
2019-Jun-18 14:42N 59°53' E 030°12'0 0.0
2019-Jun-18 14:30N 59°53' E 030°12'0 0.0
2019-Jun-18 13:57N 59°53' E 030°12'0 0.0
2019-Jun-18 13:30N 59°53' E 030°12'0 0.0
2019-Jun-18 12:24N 59°53' E 030°12'0 0.0
2019-Jun-18 12:00N 59°53' E 030°12'0 0.0
2019-Jun-18 11:27N 59°53' E 030°12'0 0.0
2019-Jun-18 10:57N 59°53' E 030°12'0 0.0
2019-Jun-18 10:30N 59°53' E 030°12'0 0.0
2019-Jun-18 10:00N 59°53' E 030°12'0 0.0
2019-Jun-18 09:24N 59°53' E 030°12'0 0.0
2019-Jun-18 09:00N 59°53' E 030°12'0 0.0
2019-Jun-18 08:30N 59°53' E 030°12'0 0.0
2019-Jun-18 07:57N 59°53' E 030°12'0 0.0
2019-Jun-18 07:30N 59°53' E 030°12'0 0.0
2019-Jun-18 07:00N 59°53' E 030°12'0 0.0
2019-Jun-18 06:30N 59°53' E 030°12'0 0.0
2019-Jun-18 06:00N 59°53' E 030°12'0 0.0
2019-Jun-18 05:30N 59°53' E 030°12'0 0.0
2019-Jun-18 05:00N 59°53' E 030°12'0 0.0
2019-Jun-18 04:30N 59°53' E 030°12'0 0.0
2019-Jun-18 03:57N 59°53' E 030°12'0 0.0
2019-Jun-18 03:30N 59°53' E 030°12'0 0.0
2019-Jun-18 03:00N 59°53' E 030°12'0 0.0
2019-Jun-18 02:30N 59°53' E 030°12'0 0.0
2019-Jun-18 01:57N 59°53' E 030°12'0 0.0
2019-Jun-18 01:30N 59°53' E 030°12'0 0.0
2019-Jun-18 01:00N 59°53' E 030°12'0 0.0
2019-Jun-18 00:30N 59°53' E 030°12'0 0.0
2019-Jun-18 00:00N 59°53' E 030°12'0 0.0
2019-Jun-17 23:27N 59°53' E 030°12'0 0.0
2019-Jun-17 23:00N 59°53' E 030°12'0 0.0
2019-Jun-17 22:30N 59°53' E 030°12'0 0.0
2019-Jun-17 22:00N 59°53' E 030°12'0 0.0
2019-Jun-17 21:45N 59°53' E 030°12'0 0.0
2019-Jun-17 21:36N 59°53' E 030°12'0 0.0
2019-Jun-17 21:21N 59°53' E 030°12'0 0.0
2019-Jun-17 21:00N 59°53' E 030°12'0 0.0
2019-Jun-17 20:27N 59°53' E 030°12'0 0.0
2019-Jun-17 20:00N 59°53' E 030°12'0 0.0
2019-Jun-16 23:27N 59°53' E 030°12'0 0.0
2019-Jun-16 23:00N 59°53' E 030°12'0 0.0
2019-Jun-16 22:30N 59°53' E 030°12'0 0.0
2019-Jun-16 22:00N 59°53' E 030°12'0 0.0
2019-Jun-16 21:30N 59°53' E 030°12'0 0.0
2019-Jun-16 21:00N 59°53' E 030°12'0 0.0
2019-Jun-16 20:30N 59°53' E 030°12'0 0.0
2019-Jun-16 19:45N 59°53' E 030°12'0 0.0
2019-Jun-16 19:18N 59°53' E 030°12'0 0.0
2019-Jun-16 18:45N 59°53' E 030°12'0 0.0
2019-Jun-16 18:27N 59°53' E 030°12'0 0.0
2019-Jun-16 18:00N 59°53' E 030°12'0 0.0
2019-Jun-16 17:24N 59°53' E 030°12'0 0.0
2019-Jun-16 17:00N 59°53' E 030°12'0 0.0
2019-Jun-16 16:27N 59°53' E 030°12'0 0.0
2019-Jun-16 16:00N 59°53' E 030°12'0 0.0
2019-Jun-16 15:27N 59°53' E 030°12'0 0.0
2019-Jun-16 15:00N 59°53' E 030°12'0 0.0
2019-Jun-16 14:30N 59°53' E 030°12'0 0.0
2019-Jun-16 14:00N 59°53' E 030°12'0 0.0
2019-Jun-16 13:30N 59°53' E 030°12'0 0.0
2019-Jun-16 13:00N 59°53' E 030°12'0 0.0
2019-Jun-16 12:27N 59°53' E 030°12'0 0.0
2019-Jun-16 11:54N 59°53' E 030°12'0 0.0
2019-Jun-16 11:30N 59°53' E 030°12'0 0.0
2019-Jun-16 11:00N 59°53' E 030°12'0 0.0
2019-Jun-16 10:30N 59°53' E 030°12'0 0.0
2019-Jun-16 09:54N 59°53' E 030°12'0 0.0
2019-Jun-16 09:30N 59°53' E 030°12'0 0.0
2019-Jun-16 09:00N 59°53' E 030°12'0 0.0
2019-Jun-16 08:30N 59°53' E 030°12'0 0.0
2019-Jun-16 08:00N 59°53' E 030°12'0 0.0
2019-Jun-16 07:30N 59°53' E 030°12'0 0.0
2019-Jun-16 07:00N 59°53' E 030°12'0 0.0
2019-Jun-16 06:30N 59°53' E 030°12'0 0.0
2019-Jun-16 06:00N 59°53' E 030°11'0 0.0
2019-Jun-16 05:27N 59°53' E 030°11'0 0.0
2019-Jun-16 05:00N 59°53' E 030°12'0 0.0
2019-Jun-16 04:30N 59°53' E 030°12'0 0.0
2019-Jun-16 04:00N 59°53' E 030°12'0 0.0
2019-Jun-16 03:24N 59°53' E 030°12'0 0.0
2019-Jun-16 03:00N 59°53' E 030°12'0 0.0
2019-Jun-16 02:27N 59°53' E 030°11'0 0.0
2019-Jun-16 02:00N 59°53' E 030°12'0 0.0
2019-Jun-16 01:30N 59°53' E 030°12'0 0.0
2019-Jun-16 01:00N 59°53' E 030°12'0 0.0
2019-Jun-16 00:30N 59°53' E 030°12'0 0.0
2019-Jun-16 00:00N 59°53' E 030°12'0 0.0
2019-Jun-15 23:30N 59°53' E 030°12'0 0.0
2019-Jun-15 23:00N 59°53' E 030°12'0 0.0
2019-Jun-15 22:27N 59°53' E 030°12'0 0.0
2019-Jun-15 22:00N 59°53' E 030°12'0 0.0
2019-Jun-15 21:30N 59°53' E 030°12'0 0.0
2019-Jun-15 21:00N 59°53' E 030°12'0 0.0
2019-Jun-15 20:30N 59°53' E 030°12'0 0.0
2019-Jun-15 20:00N 59°53' E 030°12'0 0.0
2019-Jun-15 19:30N 59°53' E 030°12'0 0.0
2019-Jun-15 18:54N 59°53' E 030°12'0 0.0
2019-Jun-15 18:30N 59°53' E 030°12'0 0.0
2019-Jun-15 18:00N 59°53' E 030°12'0 0.0
2019-Jun-15 17:30N 59°53' E 030°12'0 0.0
2019-Jun-15 17:00N 59°53' E 030°12'0 0.0
2019-Jun-15 16:30N 59°53' E 030°12'0 0.0
2019-Jun-15 16:00N 59°53' E 030°12'0 0.0
2019-Jun-15 15:30N 59°53' E 030°12'0 0.0
2019-Jun-15 15:00N 59°53' E 030°12'0 0.0
2019-Jun-15 14:30N 59°53' E 030°12'0 0.0
2019-Jun-15 14:00N 59°53' E 030°12'0 0.0
2019-Jun-15 13:30N 59°53' E 030°12'0 0.0
2019-Jun-15 12:57N 59°53' E 030°12'0 0.0
2019-Jun-15 12:30N 59°53' E 030°12'0 0.0
2019-Jun-15 12:00N 59°53' E 030°12'0 0.0
2019-Jun-15 11:30N 59°53' E 030°12'0 0.0
2019-Jun-15 11:00N 59°53' E 030°12'0 0.0
2019-Jun-15 10:30N 59°53' E 030°12'0 0.0
2019-Jun-15 10:00N 59°53' E 030°12'0 0.0
2019-Jun-15 09:30N 59°53' E 030°12'0 0.0
2019-Jun-15 09:00N 59°53' E 030°12'0 0.0
2019-Jun-15 08:30N 59°53' E 030°12'0 0.0
2019-Jun-15 08:00N 59°53' E 030°12'0 0.0
2019-Jun-15 07:30N 59°53' E 030°12'0 0.0
2019-Jun-15 07:00N 59°53' E 030°12'0 0.0
2019-Jun-15 06:30N 59°53' E 030°12'0 0.0
2019-Jun-15 06:00N 59°53' E 030°12'0 0.0
2019-Jun-15 05:25N 59°53' E 030°12'0 0.0
2019-Jun-15 05:00N 59°53' E 030°12'0 0.0
2019-Jun-15 04:30N 59°53' E 030°12'0 0.0
2019-Jun-15 04:00N 59°53' E 030°12'0 0.0
2019-Jun-15 03:27N 59°53' E 030°12'0 0.0
2019-Jun-15 03:00N 59°53' E 030°12'0 0.0
2019-Jun-15 02:28N 59°53' E 030°11'0 0.0
2019-Jun-15 01:58N 59°53' E 030°12'0 0.0
2019-Jun-15 01:19N 59°53' E 030°12'0 0.0
2019-Jun-15 00:58N 59°53' E 030°12'0 0.0
2019-Jun-15 00:28N 59°53' E 030°12'0 0.0
2019-Jun-14 23:58N 59°53' E 030°12'0 0.0
2019-Jun-14 23:30N 59°53' E 030°12'0 0.0
2019-Jun-14 23:00N 59°53' E 030°12'0 0.0
2019-Jun-14 22:30N 59°53' E 030°12'0 0.0
2019-Jun-14 22:00N 59°53' E 030°12'0 0.0
2019-Jun-14 21:30N 59°53' E 030°11'0 0.0
2019-Jun-14 21:00N 59°53' E 030°12'0 0.0
2019-Jun-14 20:29N 59°53' E 030°12'0 0.0
2019-Jun-14 19:59N 59°53' E 030°12'0 0.0
2019-Jun-14 19:29N 59°53' E 030°12'0 0.0
2019-Jun-14 18:55N 59°53' E 030°12'0 0.0
2019-Jun-14 18:28N 59°53' E 030°12'0 0.0
2019-Jun-14 17:58N 59°53' E 030°12'0 0.0
2019-Jun-14 17:28N 59°53' E 030°12'0 0.0
2019-Jun-14 16:58N 59°53' E 030°12'0 0.0
2019-Jun-14 16:28N 59°53' E 030°12'0 0.0
2019-Jun-14 15:31N 59°53' E 030°12'0 0.1
2019-Jun-14 15:28N 59°53' E 030°12'0 0.0
2019-Jun-14 14:58N 59°53' E 030°12'0 0.0
2019-Jun-14 14:28N 59°53' E 030°12'0 0.0
2019-Jun-14 13:58N 59°53' E 030°12'0 0.0
2019-Jun-14 13:28N 59°53' E 030°12'0 0.0
2019-Jun-14 12:55N 59°53' E 030°12'0 0.0
2019-Jun-14 12:25N 59°53' E 030°12'0 0.0
2019-Jun-14 11:58N 59°53' E 030°12'0 0.0
2019-Jun-14 11:28N 59°53' E 030°12'0 0.0
2019-Jun-14 10:58N 59°53' E 030°12'0 0.0
2019-Jun-14 10:28N 59°53' E 030°12'0 0.0
2019-Jun-14 09:49N 59°53' E 030°12'0 0.0
2019-Jun-14 09:28N 59°53' E 030°12'0 0.0
2019-Jun-14 08:58N 59°53' E 030°12'0 0.0
2019-Jun-14 08:28N 59°53' E 030°12'0 0.0
2019-Jun-14 07:58N 59°53' E 030°12'0 0.0
2019-Jun-14 07:25N 59°53' E 030°12'0 0.0
2019-Jun-14 06:58N 59°53' E 030°12'0 0.0
2019-Jun-14 06:25N 59°53' E 030°12'0 0.0
2019-Jun-14 05:52N 59°53' E 030°12'0 0.0
2019-Jun-14 05:28N 59°53' E 030°12'0 0.0
2019-Jun-14 04:58N 59°53' E 030°12'0 0.0
2019-Jun-14 04:25N 59°53' E 030°12'0 0.0
2019-Jun-14 03:55N 59°53' E 030°12'0 0.0
2019-Jun-14 03:25N 59°53' E 030°12'0 0.0
2019-Jun-14 02:58N 59°53' E 030°12'0 0.0
2019-Jun-14 02:22N 59°53' E 030°12'0 0.0
2019-Jun-14 01:58N 59°53' E 030°12'0 0.0
2019-Jun-14 01:28N 59°53' E 030°11'0 0.0
2019-Jun-14 00:58N 59°53' E 030°12'0 0.0
2019-Jun-14 00:28N 59°53' E 030°12'0 0.0
2019-Jun-13 23:58N 59°53' E 030°12'0 0.0
2019-Jun-13 23:28N 59°53' E 030°12'0 0.0
2019-Jun-13 22:58N 59°53' E 030°12'0 0.0
2019-Jun-13 22:28N 59°53' E 030°12'0 0.0
2019-Jun-13 21:58N 59°53' E 030°12'0 0.0
2019-Jun-13 21:28N 59°53' E 030°12'0 0.0
2019-Jun-13 20:58N 59°53' E 030°12'0 0.0
2019-Jun-13 20:25N 59°53' E 030°12'0 0.0
2019-Jun-13 19:58N 59°53' E 030°12'0 0.0
2019-Jun-13 19:28N 59°53' E 030°12'0 0.0
2019-Jun-13 18:58N 59°53' E 030°12'0 0.0
2019-Jun-13 18:25N 59°53' E 030°12'0 0.0
2019-Jun-13 17:55N 59°53' E 030°12'0 0.0
2019-Jun-13 17:28N 59°53' E 030°12'0 0.0
2019-Jun-13 16:58N 59°53' E 030°12'0 0.0
2019-Jun-13 16:28N 59°53' E 030°12'0 0.0
2019-Jun-13 15:58N 59°53' E 030°12'0 0.0
2019-Jun-13 15:28N 59°53' E 030°12'0 0.0
2019-Jun-13 14:58N 59°53' E 030°12'0 0.0
2019-Jun-13 14:28N 59°53' E 030°12'0 0.0
2019-Jun-13 13:58N 59°53' E 030°12'0 0.0
2019-Jun-13 13:28N 59°53' E 030°12'0 0.0
2019-Jun-13 12:55N 59°53' E 030°12'0 0.0
2019-Jun-13 12:19N 59°53' E 030°12'0 0.0
2019-Jun-13 11:55N 59°53' E 030°12'0 0.0
2019-Jun-13 11:28N 59°53' E 030°12'0 0.0
2019-Jun-13 10:58N 59°53' E 030°12'0 0.0
2019-Jun-13 10:28N 59°53' E 030°12'0 0.0
2019-Jun-13 09:58N 59°53' E 030°12'0 0.0
2019-Jun-13 09:25N 59°53' E 030°12'0 0.0
2019-Jun-13 08:58N 59°53' E 030°12'0 0.0
2019-Jun-13 08:28N 59°53' E 030°12'0 0.0
2019-Jun-13 07:58N 59°53' E 030°12'0 0.0
2019-Jun-13 07:28N 59°53' E 030°12'0 0.0
2019-Jun-13 06:58N 59°53' E 030°12'0 0.0
2019-Jun-13 06:28N 59°53' E 030°12'0 0.0
2019-Jun-13 05:58N 59°53' E 030°12'0 0.0
2019-Jun-13 05:28N 59°53' E 030°12'0 0.0
2019-Jun-13 04:58N 59°53' E 030°12'0 0.0
2019-Jun-13 04:28N 59°53' E 030°12'0 0.0
2019-Jun-13 03:58N 59°53' E 030°12'0 0.0
2019-Jun-13 03:28N 59°53' E 030°12'0 0.0
2019-Jun-13 02:58N 59°53' E 030°12'0 0.0
2019-Jun-13 02:28N 59°53' E 030°12'0 0.0
2019-Jun-13 01:58N 59°53' E 030°12'0 0.0
2019-Jun-13 01:28N 59°53' E 030°12'0 0.0
2019-Jun-13 00:58N 59°53' E 030°12'0 0.0
2019-Jun-13 00:28N 59°53' E 030°12'0 0.0
2019-Jun-12 23:55N 59°53' E 030°12'0 0.0
2019-Jun-12 23:28N 59°53' E 030°12'0 0.0
2019-Jun-12 22:58N 59°53' E 030°12'0 0.0
2019-Jun-12 22:28N 59°53' E 030°12'0 0.0
2019-Jun-12 21:58N 59°53' E 030°12'0 0.0
2019-Jun-12 21:28N 59°53' E 030°12'0 0.0
2019-Jun-12 20:58N 59°53' E 030°12'0 0.0
2019-Jun-12 20:28N 59°53' E 030°12'0 0.0
2019-Jun-12 19:58N 59°53' E 030°12'0 0.0
2019-Jun-12 19:28N 59°53' E 030°12'0 0.0
2019-Jun-12 18:58N 59°53' E 030°12'0 0.0
2019-Jun-12 18:28N 59°53' E 030°12'0 0.0
2019-Jun-12 17:55N 59°53' E 030°12'0 0.0
2019-Jun-12 17:28N 59°53' E 030°12'0 0.0
2019-Jun-12 16:58N 59°53' E 030°12'0 0.0
2019-Jun-12 16:28N 59°53' E 030°12'0 0.0
2019-Jun-12 15:58N 59°53' E 030°12'0 0.0
2019-Jun-12 15:28N 59°53' E 030°12'0 0.0
2019-Jun-12 14:55N 59°53' E 030°12'0 0.0
2019-Jun-12 14:28N 59°53' E 030°12'0 0.0
2019-Jun-12 13:58N 59°53' E 030°12'0 0.0
2019-Jun-12 13:28N 59°53' E 030°12'0 0.0
2019-Jun-12 12:58N 59°53' E 030°12'0 0.0
2019-Jun-12 12:28N 59°53' E 030°12'0 0.0
2019-Jun-12 11:58N 59°53' E 030°12'0 0.0
2019-Jun-12 11:28N 59°53' E 030°12'0 0.0
2019-Jun-12 10:58N 59°53' E 030°12'0 0.0
2019-Jun-12 10:28N 59°53' E 030°12'0 0.0
2019-Jun-12 09:58N 59°53' E 030°12'0 0.0
2019-Jun-12 09:28N 59°53' E 030°12'0 0.0
2019-Jun-12 08:58N 59°53' E 030°12'0 0.0
2019-Jun-12 08:25N 59°53' E 030°12'0 0.0
2019-Jun-12 07:55N 59°53' E 030°12'0 0.0
2019-Jun-12 07:28N 59°53' E 030°12'0 0.0
2019-Jun-12 06:58N 59°53' E 030°12'0 0.0
2019-Jun-12 06:25N 59°53' E 030°12'0 0.0
2019-Jun-12 05:58N 59°53' E 030°12'0 0.0
2019-Jun-12 05:25N 59°53' E 030°12'0 0.0
2019-Jun-12 04:58N 59°53' E 030°12'0 0.0
2019-Jun-12 04:25N 59°53' E 030°12'0 0.0
2019-Jun-12 03:58N 59°53' E 030°12'0 0.0
2019-Jun-12 03:28N 59°53' E 030°12'0 0.0
2019-Jun-12 02:58N 59°53' E 030°12'0 0.0
2019-Jun-12 02:28N 59°53' E 030°12'0 0.0
2019-Jun-12 01:28N 59°53' E 030°12'0 0.0
2019-Jun-12 00:58N 59°53' E 030°12'0 0.0
2019-Jun-12 00:28N 59°53' E 030°12'0 0.0
2019-Jun-11 23:58N 59°53' E 030°12'0 0.0
2019-Jun-11 23:28N 59°53' E 030°12'0 0.0
2019-Jun-11 22:55N 59°53' E 030°12'0 0.0
2019-Jun-11 22:28N 59°53' E 030°12'0 0.0
2019-Jun-11 21:58N 59°53' E 030°12'0 0.0
2019-Jun-11 21:28N 59°53' E 030°12'0 0.0
2019-Jun-11 20:58N 59°53' E 030°12'0 0.0
2019-Jun-11 20:28N 59°53' E 030°12'0 0.0
2019-Jun-11 19:58N 59°53' E 030°12'0 0.0
2019-Jun-11 19:28N 59°53' E 030°12'0 0.0
2019-Jun-11 18:55N 59°53' E 030°12'0 0.0
2019-Jun-11 18:22N 59°53' E 030°11'0 0.0
2019-Jun-11 17:58N 59°53' E 030°12'0 0.0
2019-Jun-11 17:22N 59°53' E 030°12'0 0.0
2019-Jun-11 16:58N 59°53' E 030°12'0 0.0
2019-Jun-11 16:28N 59°53' E 030°12'0 0.0
2019-Jun-11 15:58N 59°53' E 030°12'0 0.0
2019-Jun-11 15:28N 59°53' E 030°12'0 0.0
2019-Jun-11 14:52N 59°53' E 030°12'0 0.0
2019-Jun-11 14:28N 59°53' E 030°12'0 0.0
2019-Jun-11 13:55N 59°53' E 030°12'0 0.0
2019-Jun-11 13:28N 59°53' E 030°12'0 0.0
2019-Jun-11 12:58N 59°53' E 030°12'0 0.0
2019-Jun-11 12:25N 59°53' E 030°12'0 0.0
2019-Jun-11 11:58N 59°53' E 030°12'0 0.0
2019-Jun-11 11:28N 59°53' E 030°12'0 0.0
2019-Jun-11 10:58N 59°53' E 030°12'0 0.0
2019-Jun-11 10:28N 59°53' E 030°12'0 0.0
2019-Jun-11 09:55N 59°53' E 030°12'0 0.0
2019-Jun-11 09:25N 59°53' E 030°12'0 0.0
2019-Jun-11 08:58N 59°53' E 030°12'0 0.0
2019-Jun-11 08:28N 59°53' E 030°12'0 0.0
2019-Jun-11 07:58N 59°53' E 030°12'0 0.0
2019-Jun-11 07:28N 59°53' E 030°12'0 0.0
2019-Jun-11 06:55N 59°53' E 030°12'0 0.0
2019-Jun-11 06:19N 59°53' E 030°12'0 0.0
2019-Jun-11 05:58N 59°53' E 030°12'0 0.0
2019-Jun-11 05:28N 59°53' E 030°12'0 0.0
2019-Jun-11 04:58N 59°53' E 030°12'0 0.0
2019-Jun-11 04:28N 59°53' E 030°11'0 0.0
2019-Jun-11 03:55N 59°53' E 030°12'0 0.0
2019-Jun-11 03:25N 59°53' E 030°12'0 0.0
2019-Jun-11 02:58N 59°53' E 030°12'0 0.0
2019-Jun-11 02:25N 59°53' E 030°12'0 0.0
2019-Jun-11 01:55N 59°53' E 030°12'0 0.0
2019-Jun-11 01:28N 59°53' E 030°12'0 0.0
2019-Jun-11 00:58N 59°53' E 030°12'0 0.0
2019-Jun-11 00:28N 59°53' E 030°12'0 0.0
2019-Jun-10 23:58N 59°53' E 030°12'0 0.0
2019-Jun-10 23:28N 59°53' E 030°12'0 0.0
2019-Jun-10 22:55N 59°53' E 030°12'0 0.0
2019-Jun-10 22:25N 59°53' E 030°12'0 0.0
2019-Jun-10 21:58N 59°53' E 030°12'0 0.0
2019-Jun-10 21:28N 59°53' E 030°12'0 0.0
2019-Jun-10 20:58N 59°53' E 030°12'0 0.0
2019-Jun-10 20:22N 59°53' E 030°12'0 0.0
2019-Jun-10 19:55N 59°53' E 030°12'0 0.0
2019-Jun-10 19:28N 59°53' E 030°12'0 0.0
2019-Jun-10 18:58N 59°53' E 030°12'0 0.0
2019-Jun-10 18:28N 59°53' E 030°12'0 0.0
2019-Jun-10 17:58N 59°53' E 030°12'0 0.0
2019-Jun-10 17:28N 59°53' E 030°12'0 0.0
2019-Jun-10 16:58N 59°53' E 030°12'0 0.0
2019-Jun-10 16:25N 59°53' E 030°12'0 0.0
2019-Jun-10 15:58N 59°53' E 030°11'0 0.0
2019-Jun-10 15:22N 59°53' E 030°12'0 0.0
2019-Jun-10 14:55N 59°53' E 030°12'0 0.0
2019-Jun-10 14:28N 59°53' E 030°12'0 0.0
2019-Jun-10 13:58N 59°53' E 030°12'0 0.0
2019-Jun-10 13:28N 59°53' E 030°12'0 0.0
2019-Jun-10 12:58N 59°53' E 030°12'0 0.0
2019-Jun-10 12:28N 59°53' E 030°11'0 0.0
2019-Jun-10 11:55N 59°53' E 030°11'0 0.0
2019-Jun-10 11:22N 59°53' E 030°12'0 0.0
2019-Jun-10 10:55N 59°53' E 030°12'0 0.0
2019-Jun-10 10:28N 59°53' E 030°12'0 0.0
2019-Jun-10 09:58N 59°53' E 030°12'0 0.0
2019-Jun-10 09:28N 59°53' E 030°12'0 0.0
2019-Jun-10 08:58N 59°53' E 030°12'0 0.0
2019-Jun-10 08:28N 59°53' E 030°12'0 0.0
2019-Jun-10 07:58N 59°53' E 030°12'0 0.0
2019-Jun-10 07:25N 59°53' E 030°12'0 0.0
2019-Jun-10 06:55N 59°53' E 030°12'0 0.0
2019-Jun-10 06:28N 59°53' E 030°12'0 0.0
2019-Jun-10 05:55N 59°53' E 030°12'0 0.0
2019-Jun-10 05:28N 59°53' E 030°12'0 0.0
2019-Jun-10 04:58N 59°53' E 030°12'0 0.0
2019-Jun-10 04:28N 59°53' E 030°12'0 0.0
2019-Jun-10 03:58N 59°53' E 030°12'0 0.0
2019-Jun-10 03:25N 59°53' E 030°12'0 0.0
2019-Jun-10 02:58N 59°53' E 030°12'0 0.0
2019-Jun-10 02:22N 59°53' E 030°12'0 0.0
2019-Jun-10 01:58N 59°53' E 030°12'0 0.0
2019-Jun-10 01:28N 59°53' E 030°12'0 0.0
2019-Jun-10 00:55N 59°53' E 030°12'0 0.0
2019-Jun-10 00:28N 59°53' E 030°12'0 0.0
2019-Jun-09 23:58N 59°53' E 030°12'0 0.0
2019-Jun-09 23:28N 59°53' E 030°12'0 0.0
2019-Jun-09 22:58N 59°53' E 030°12'0 0.0
2019-Jun-09 22:28N 59°53' E 030°12'0 0.0
2019-Jun-09 21:58N 59°53' E 030°12'0 0.0
2019-Jun-09 21:28N 59°53' E 030°12'0 0.0
2019-Jun-09 20:58N 59°53' E 030°12'0 0.0
2019-Jun-09 20:28N 59°53' E 030°12'0 0.0
2019-Jun-09 19:55N 59°53' E 030°12'0 0.0
2019-Jun-09 19:28N 59°53' E 030°12'0 0.0
2019-Jun-09 18:58N 59°53' E 030°11'0 0.0
2019-Jun-09 18:28N 59°53' E 030°12'0 0.0
2019-Jun-09 17:58N 59°53' E 030°12'0 0.0
2019-Jun-09 17:28N 59°53' E 030°12'0 0.0
2019-Jun-09 16:58N 59°53' E 030°12'0 0.0
2019-Jun-09 16:28N 59°53' E 030°11'0 0.0
2019-Jun-09 15:58N 59°53' E 030°11'0 0.0
2019-Jun-09 15:28N 59°53' E 030°12'0 0.0
2019-Jun-09 14:58N 59°53' E 030°12'0 0.0
2019-Jun-09 14:28N 59°53' E 030°12'0 0.0
2019-Jun-09 13:59N 59°53' E 030°12'0 0.0
2019-Jun-09 13:26N 59°53' E 030°12'0 0.0
2019-Jun-09 12:59N 59°53' E 030°12'0 0.0
2019-Jun-09 12:26N 59°53' E 030°12'0 0.0
2019-Jun-09 11:59N 59°53' E 030°12'0 0.0
2019-Jun-09 11:29N 59°53' E 030°12'0 0.0
2019-Jun-09 10:59N 59°53' E 030°12'0 0.0
2019-Jun-09 10:29N 59°53' E 030°12'0 0.0
2019-Jun-09 09:59N 59°53' E 030°12'0 0.0
2019-Jun-09 09:29N 59°53' E 030°12'0 0.0
2019-Jun-09 08:59N 59°53' E 030°12'0 0.0
2019-Jun-09 08:26N 59°53' E 030°12'0 0.0
2019-Jun-09 07:56N 59°53' E 030°12'0 0.0
2019-Jun-09 07:29N 59°53' E 030°12'0 0.0
2019-Jun-09 06:59N 59°53' E 030°12'0 0.0
2019-Jun-09 06:26N 59°53' E 030°12'0 0.0
2019-Jun-09 05:53N 59°53' E 030°12'0 0.0
2019-Jun-09 05:29N 59°53' E 030°12'0 0.0
2019-Jun-09 04:56N 59°53' E 030°12'0 0.0
2019-Jun-09 03:56N 59°53' E 030°12'0 0.0
2019-Jun-09 03:29N 59°53' E 030°12'0 0.0
2019-Jun-09 02:59N 59°53' E 030°12'0 0.0
2019-Jun-09 02:26N 59°53' E 030°12'0 0.0
2019-Jun-09 01:59N 59°53' E 030°12'0 0.0
2019-Jun-09 01:26N 59°53' E 030°12'0 0.0
2019-Jun-09 00:53N 59°53' E 030°12'0 0.0
2019-Jun-09 00:14N 59°53' E 030°12'0 0.0
2019-Jun-08 23:41N 59°53' E 030°12'0 0.0
2019-Jun-08 23:14N 59°53' E 030°11'0 0.0
2019-Jun-08 22:56N 59°53' E 030°12'0 0.0
2019-Jun-08 22:17N 59°53' E 030°12'0 0.0
2019-Jun-08 21:53N 59°53' E 030°12'0 0.0
2019-Jun-08 21:17N 59°53' E 030°12'0 0.0
2019-Jun-08 20:47N 59°53' E 030°12'0 0.0
2019-Jun-08 20:29N 59°53' E 030°12'0 0.0
2019-Jun-08 19:59N 59°53' E 030°12'0 0.0
2019-Jun-08 19:29N 59°53' E 030°12'0 0.0
2019-Jun-08 18:53N 59°53' E 030°12'0 0.0
2019-Jun-08 18:29N 59°53' E 030°12'0 0.0
2019-Jun-08 17:59N 59°53' E 030°12'0 0.0
2019-Jun-08 17:29N 59°53' E 030°11'0 0.0
2019-Jun-08 16:56N 59°53' E 030°12'0 0.0
2019-Jun-08 16:29N 59°53' E 030°12'0 0.0
2019-Jun-08 15:59N 59°53' E 030°11'0 0.0
2019-Jun-08 15:26N 59°53' E 030°12'0 0.0
2019-Jun-08 14:56N 59°53' E 030°12'0 0.0
2019-Jun-08 14:29N 59°53' E 030°12'0 0.0
2019-Jun-08 13:56N 59°53' E 030°12'0 0.0
2019-Jun-08 13:29N 59°53' E 030°12'0 0.0
2019-Jun-08 12:59N 59°53' E 030°12'0 0.0
2019-Jun-08 12:29N 59°53' E 030°12'0 0.0
2019-Jun-08 11:59N 59°53' E 030°12'0 0.0
2019-Jun-08 11:23N 59°53' E 030°12'0 0.0
2019-Jun-08 10:59N 59°53' E 030°12'0 0.0
2019-Jun-08 10:26N 59°53' E 030°12'0 0.0
2019-Jun-08 09:59N 59°53' E 030°12'0 0.0
2019-Jun-08 09:26N 59°53' E 030°12'0 0.0
2019-Jun-08 08:59N 59°53' E 030°12'0 0.0
2019-Jun-08 08:29N 59°53' E 030°12'0 0.0
2019-Jun-08 07:59N 59°53' E 030°12'0 0.0
2019-Jun-08 07:29N 59°53' E 030°12'0 0.0
2019-Jun-08 06:59N 59°53' E 030°12'0 0.0
2019-Jun-08 06:29N 59°53' E 030°12'0 0.0
2019-Jun-08 05:59N 59°53' E 030°12'0 0.0
2019-Jun-08 05:29N 59°53' E 030°12'0 0.0
2019-Jun-08 04:41N 59°53' E 030°11'0 0.0
2019-Jun-08 04:29N 59°53' E 030°12'0 0.0
2019-Jun-08 03:53N 59°53' E 030°12'0 0.0
2019-Jun-08 03:29N 59°53' E 030°12'0 0.0
2019-Jun-08 02:59N 59°53' E 030°12'0 0.0
2019-Jun-08 02:29N 59°53' E 030°12'0 0.0
2019-Jun-08 01:59N 59°53' E 030°12'0 0.0
2019-Jun-08 01:29N 59°53' E 030°12'0 0.0
2019-Jun-08 00:59N 59°53' E 030°12'0 0.0
2019-Jun-08 00:29N 59°53' E 030°12'0 0.0
2019-Jun-07 23:59N 59°53' E 030°12'0 0.0
2019-Jun-07 23:29N 59°53' E 030°12'0 0.0
2019-Jun-07 22:59N 59°53' E 030°12'0 0.0
2019-Jun-07 22:29N 59°53' E 030°12'0 0.0
2019-Jun-07 21:59N 59°53' E 030°12'0 0.0
2019-Jun-07 21:29N 59°53' E 030°12'0 0.0
2019-Jun-07 20:59N 59°53' E 030°12'0 0.0
2019-Jun-07 20:29N 59°53' E 030°12'0 0.0
2019-Jun-07 19:56N 59°53' E 030°12'0 0.0
2019-Jun-07 19:23N 59°53' E 030°12'0 0.0
2019-Jun-07 18:59N 59°53' E 030°12'0 0.0
2019-Jun-07 18:29N 59°53' E 030°12'0 0.0
2019-Jun-07 17:59N 59°53' E 030°12'0 0.0
2019-Jun-07 17:26N 59°53' E 030°12'0 0.0
2019-Jun-07 16:47N 59°53' E 030°12'0 0.0
2019-Jun-07 16:29N 59°53' E 030°12'0 0.0
2019-Jun-07 15:41N 59°53' E 030°12'0 0.0
2019-Jun-07 15:17N 59°53' E 030°12'0 0.0
2019-Jun-07 14:59N 59°53' E 030°12'0 0.0
2019-Jun-07 14:29N 59°53' E 030°12'0 0.0
2019-Jun-07 13:44N 59°53' E 030°12'0 0.0
2019-Jun-07 13:23N 59°53' E 030°12'0 0.0
2019-Jun-07 12:59N 59°53' E 030°12'0 0.0
2019-Jun-07 12:29N 59°53' E 030°12'0 0.0
2019-Jun-07 11:59N 59°53' E 030°12'0 0.0
2019-Jun-07 11:29N 59°53' E 030°12'0 0.0
2019-Jun-07 10:47N 59°53' E 030°12'0 0.0
2019-Jun-07 10:23N 59°53' E 030°12'0 0.0
2019-Jun-07 09:59N 59°53' E 030°12'0 0.0
2019-Jun-07 09:29N 59°53' E 030°12'0 0.0
2019-Jun-07 08:59N 59°53' E 030°12'0 0.0
2019-Jun-07 08:23N 59°53' E 030°12'0 0.0
2019-Jun-07 07:59N 59°53' E 030°12'0 0.0
2019-Jun-07 07:29N 59°53' E 030°12'0 0.0
2019-Jun-07 06:59N 59°53' E 030°12'0 0.0
2019-Jun-07 06:29N 59°53' E 030°12'0 0.0
2019-Jun-07 05:53N 59°53' E 030°12'0 0.0
2019-Jun-07 05:23N 59°53' E 030°12'0 0.0
2019-Jun-07 04:59N 59°53' E 030°12'0 0.0
2019-Jun-07 04:23N 59°53' E 030°12'0 0.0
2019-Jun-07 03:59N 59°53' E 030°12'0 0.0
2019-Jun-07 03:23N 59°53' E 030°12'0 0.0
2019-Jun-07 02:53N 59°53' E 030°12'0 0.0
2019-Jun-07 02:29N 59°53' E 030°12'0 0.0
2019-Jun-07 01:50N 59°53' E 030°12'0 0.0
2019-Jun-07 01:23N 59°53' E 030°12'0 0.0
2019-Jun-07 00:32N 59°53' E 030°12'0 0.0
2019-Jun-06 23:53N 59°53' E 030°12'0 0.0
2019-Jun-06 23:29N 59°53' E 030°12'0 0.0
2019-Jun-06 22:59N 59°53' E 030°12'  

Dump ship's entire track history